createdAt,value
2023-05-20T00:01:18.193Z,27.60
2023-05-20T00:03:53.569Z,28.35
2023-05-20T00:06:41.216Z,27.42
2023-05-20T00:09:14.347Z,29.38
2023-05-20T00:12:01.221Z,27.50
2023-05-20T00:14:34.401Z,29.25
2023-05-20T00:17:21.249Z,29.17
2023-05-20T00:19:54.352Z,28.95
2023-05-20T00:22:41.216Z,27.25
2023-05-20T00:25:15.431Z,27.65
2023-05-20T00:28:02.221Z,26.50
2023-05-20T00:30:42.252Z,28.77
2023-05-20T00:33:36.224Z,27.50
2023-05-20T00:36:23.248Z,27.90
2023-05-20T00:38:56.371Z,27.05
2023-05-20T00:41:43.195Z,27.83
2023-05-20T00:44:18.041Z,25.83
2023-05-20T00:47:05.217Z,27.00
2023-05-20T00:49:46.178Z,27.33
2023-05-20T00:52:43.249Z,27.73
2023-05-20T00:55:30.264Z,28.23
2023-05-20T00:58:03.390Z,28.98
2023-05-20T01:00:50.242Z,28.40
2023-05-20T01:03:24.612Z,27.58
2023-05-20T01:06:11.329Z,29.27
2023-05-20T01:08:44.424Z,29.58
2023-05-20T01:11:39.298Z,28.45
2023-05-20T01:14:15.741Z,27.55
2023-05-20T01:17:05.255Z,28.20
2023-05-20T01:19:54.220Z,29.27
2023-05-20T01:22:51.240Z,29.38
2023-05-20T01:25:38.258Z,30.50
2023-05-20T01:28:17.733Z,27.95
2023-05-20T01:31:07.259Z,27.63
2023-05-20T01:33:50.230Z,27.65
2023-05-20T01:36:46.247Z,29.23
2023-05-20T01:39:33.259Z,30.05
2023-05-20T01:42:14.259Z,31.25
2023-05-20T01:45:08.252Z,29.33
2023-05-20T01:47:55.269Z,30.92
2023-05-20T01:50:28.351Z,30.58
2023-05-20T01:53:22.229Z,28.58
2023-05-20T01:56:16.253Z,30.42
2023-05-20T01:59:10.263Z,29.55
2023-05-20T02:02:04.353Z,29.60
2023-05-20T02:04:58.241Z,30.17
2023-05-20T02:07:38.285Z,29.42
2023-05-20T02:10:32.257Z,29.83
2023-05-20T02:13:19.257Z,30.40
2023-05-20T02:15:52.400Z,30.38
2023-05-20T02:18:39.303Z,32.15
2023-05-20T02:21:12.380Z,29.10
2023-05-20T02:23:59.268Z,29.38
2023-05-20T02:26:32.676Z,30.00
2023-05-20T02:29:19.269Z,30.00
2023-05-20T02:31:52.490Z,30.75
2023-05-20T02:34:39.310Z,30.63
2023-05-20T02:37:19.282Z,31.13
2023-05-20T02:40:06.301Z,28.52
2023-05-20T02:42:39.511Z,28.77
2023-05-20T02:45:26.277Z,30.98
2023-05-20T02:47:59.506Z,31.00
2023-05-20T02:50:47.276Z,30.27
2023-05-20T02:53:27.279Z,28.88
2023-05-20T02:56:08.293Z,29.15
2023-05-20T02:58:55.271Z,29.35
2023-05-20T03:01:49.312Z,29.30
2023-05-20T03:04:36.308Z,29.45
2023-05-20T03:07:09.414Z,30.33
2023-05-20T03:09:56.285Z,28.15
2023-05-20T03:12:29.405Z,29.60
2023-05-20T03:15:16.277Z,29.10
2023-05-20T03:17:49.458Z,27.67
2023-05-20T03:20:36.342Z,27.58
2023-05-20T03:23:11.160Z,28.40
2023-05-20T03:25:58.330Z,29.25
2023-05-20T03:28:31.430Z,26.33
2023-05-20T03:31:18.372Z,28.08
2023-05-20T03:33:51.407Z,26.90
2023-05-20T03:36:41.359Z,28.00
2023-05-20T03:39:24.304Z,29.77
2023-05-20T03:42:12.304Z,28.58
2023-05-20T03:44:52.317Z,29.98
2023-05-20T03:47:46.367Z,30.85
2023-05-20T03:50:33.289Z,27.83
2023-05-20T03:53:06.589Z,27.92
2023-05-20T03:55:53.329Z,28.52
2023-05-20T03:58:26.456Z,27.55
2023-05-20T04:01:13.323Z,27.95
2023-05-20T04:03:47.519Z,28.65
2023-05-20T04:06:34.312Z,27.25
2023-05-20T04:09:14.319Z,27.67
2023-05-20T04:12:08.312Z,26.33
2023-05-20T04:15:02.345Z,27.77
2023-05-20T04:17:57.383Z,27.40
2023-05-20T04:20:51.330Z,27.70
2023-05-20T04:23:45.294Z,26.33
2023-05-20T04:26:32.338Z,26.52
2023-05-20T04:29:12.318Z,26.75
2023-05-20T04:32:06.384Z,25.90
2023-05-20T04:34:53.348Z,27.27
2023-05-20T04:37:26.462Z,26.65
2023-05-20T04:40:13.341Z,28.52
2023-05-20T04:42:46.403Z,24.95
2023-05-20T04:45:33.552Z,27.20
2023-05-20T04:48:07.518Z,27.83
2023-05-20T04:50:55.385Z,24.95
2023-05-20T04:53:37.332Z,25.55
2023-05-20T04:56:31.334Z,26.17
2023-05-20T04:59:18.334Z,24.90
2023-05-20T05:01:58.375Z,25.05
2023-05-20T05:04:52.390Z,26.52
2023-05-20T05:07:39.346Z,28.02
2023-05-20T05:10:19.351Z,25.83
2023-05-20T05:13:06.367Z,26.67
2023-05-20T05:15:42.481Z,25.02
2023-05-20T05:18:29.345Z,38.53
2023-05-20T05:21:10.433Z,26.95
2023-05-20T05:23:58.359Z,24.70
2023-05-20T05:26:31.484Z,23.88
2023-05-20T05:29:18.357Z,21.35
2023-05-20T05:31:51.493Z,26.00
2023-05-20T05:34:38.336Z,23.75
2023-05-20T05:37:11.470Z,22.45
2023-05-20T05:39:58.407Z,22.55
2023-05-20T05:42:32.452Z,22.80
2023-05-20T05:45:19.360Z,22.33
2023-05-20T05:47:52.467Z,20.95
2023-05-20T05:50:39.368Z,21.83
2023-05-20T05:53:34.362Z,21.45
2023-05-20T05:56:21.368Z,22.63
2023-05-20T05:59:01.380Z,22.10
2023-05-20T06:01:55.427Z,22.77
2023-05-20T06:04:42.349Z,23.55
2023-05-20T06:07:15.458Z,21.80
2023-05-20T06:10:02.384Z,20.73
2023-05-20T06:12:42.371Z,20.98
2023-05-20T06:15:36.651Z,20.98
2023-05-20T06:18:23.365Z,21.33
2023-05-20T06:21:13.401Z,23.77
2023-05-20T06:24:07.398Z,23.00
2023-05-20T06:26:56.350Z,22.20
2023-05-20T06:29:37.415Z,21.98
2023-05-20T06:32:31.396Z,23.35
2023-05-20T06:35:18.385Z,23.55
2023-05-20T06:37:51.545Z,22.40
2023-05-20T06:40:38.392Z,23.50
2023-05-20T06:43:11.465Z,22.95
2023-05-20T06:45:58.395Z,23.45
2023-05-20T06:48:38.405Z,23.33
2023-05-20T06:51:25.400Z,24.35
2023-05-20T06:54:01.492Z,23.42
2023-05-20T06:56:48.455Z,23.17
2023-05-20T06:59:21.485Z,24.30
2023-05-20T07:02:08.463Z,29.08
2023-05-20T07:04:48.425Z,23.67
2023-05-20T07:07:42.451Z,26.85
2023-05-20T07:10:36.491Z,28.75
2023-05-20T07:13:30.413Z,27.42
2023-05-20T07:16:17.464Z,26.08
2023-05-20T07:18:50.633Z,23.13
2023-05-20T07:21:37.426Z,26.67
2023-05-20T07:24:10.508Z,23.38
2023-05-20T07:26:57.401Z,26.23
2023-05-20T07:29:40.406Z,24.23
2023-05-20T07:32:34.442Z,26.70
2023-05-20T07:35:21.404Z,25.05
2023-05-20T07:37:54.527Z,23.40
2023-05-20T07:40:43.424Z,25.00
2023-05-20T07:43:16.512Z,29.58
2023-05-20T07:46:03.479Z,24.15
2023-05-20T07:48:36.507Z,24.95
2023-05-20T07:51:23.400Z,24.75
2023-05-20T07:54:06.416Z,26.75
2023-05-20T07:56:53.420Z,26.27
2023-05-20T07:59:26.543Z,26.00
2023-05-20T08:02:13.454Z,25.23
2023-05-20T08:04:46.544Z,26.33
2023-05-20T08:07:33.451Z,25.70
2023-05-20T08:10:13.431Z,26.45
2023-05-20T08:13:00.424Z,24.67
2023-05-20T08:15:40.424Z,25.17
2023-05-20T08:18:34.439Z,39.53
2023-05-20T08:21:22.442Z,24.67
2023-05-20T08:24:02.455Z,24.58
2023-05-20T08:26:56.432Z,23.75
2023-05-20T08:29:43.433Z,24.38
2023-05-20T08:32:23.577Z,25.02
2023-05-20T08:35:11.449Z,23.95
2023-05-20T08:37:51.476Z,24.02
2023-05-20T08:40:41.442Z,24.38
2023-05-20T08:43:14.547Z,25.65
2023-05-20T08:46:01.478Z,24.80
2023-05-20T08:48:37.037Z,26.77
2023-05-20T08:51:27.461Z,26.27
2023-05-20T08:54:01.095Z,25.27
2023-05-20T08:56:48.457Z,24.25
2023-05-20T08:59:23.572Z,26.55
2023-05-20T09:02:10.466Z,24.45
2023-05-20T09:04:44.615Z,24.67
2023-05-20T09:07:35.445Z,25.35
2023-05-20T09:10:08.713Z,24.50
2023-05-20T09:12:56.487Z,31.17
2023-05-20T09:15:29.580Z,26.52
2023-05-20T09:18:16.488Z,25.50
2023-05-20T09:20:56.478Z,24.75
2023-05-20T09:23:44.485Z,24.88
2023-05-20T09:26:17.567Z,24.63
2023-05-20T09:29:04.494Z,23.77
2023-05-20T09:31:40.836Z,30.27
2023-05-20T09:34:27.502Z,26.40
2023-05-20T09:37:02.704Z,26.00
2023-05-20T09:40:20.480Z,25.70
2023-05-20T09:43:15.419Z,25.13
2023-05-20T09:46:03.493Z,30.05
2023-05-20T09:48:37.814Z,25.38
2023-05-20T09:51:24.495Z,25.63
2023-05-20T09:54:06.507Z,25.63
2023-05-20T09:57:01.496Z,35.00
2023-05-20T09:59:56.480Z,30.08
2023-05-20T10:02:44.599Z,29.35
2023-05-20T10:05:46.717Z,27.60
2023-05-20T10:09:03.553Z,27.92
2023-05-20T10:11:55.520Z,25.70
2023-05-20T10:15:13.506Z,25.48
2023-05-20T10:18:16.518Z,33.63
2023-05-20T10:20:57.653Z,24.85
2023-05-20T10:23:44.539Z,25.48
2023-05-20T10:26:24.522Z,25.63
2023-05-20T10:29:25.521Z,26.50
2023-05-20T10:31:59.691Z,24.85
2023-05-20T10:34:54.531Z,26.02
2023-05-20T10:37:38.518Z,24.40
2023-05-20T10:40:26.529Z,25.33
2023-05-20T10:43:01.173Z,25.00
2023-05-20T10:45:58.546Z,25.27
2023-05-20T10:48:39.593Z,24.42
2023-05-20T10:51:35.532Z,25.33
2023-05-20T10:54:29.533Z,24.38
2023-05-20T10:57:17.530Z,26.33
2023-05-20T10:59:57.546Z,27.48
2023-05-20T11:02:54.624Z,27.40
2023-05-20T11:05:41.537Z,27.45
2023-05-20T11:08:28.874Z,27.25
2023-05-20T11:11:25.556Z,27.52
2023-05-20T11:14:12.560Z,26.35
2023-05-20T11:16:53.614Z,28.08
2023-05-20T11:19:47.594Z,25.50
2023-05-20T11:22:41.554Z,25.83
2023-05-20T11:25:31.565Z,25.42
2023-05-20T11:28:06.101Z,26.70
2023-05-20T11:30:52.565Z,27.83
2023-05-20T11:33:39.594Z,26.00
2023-05-20T11:36:28.256Z,26.10
2023-05-20T11:39:11.547Z,26.35
2023-05-20T11:42:05.579Z,27.58
2023-05-20T11:45:01.134Z,25.73
2023-05-20T11:47:48.710Z,26.55
2023-05-20T11:50:25.680Z,28.90
2023-05-20T11:53:30.585Z,27.30
2023-05-20T11:56:17.610Z,29.27
2023-05-20T11:58:50.747Z,29.77
2023-05-20T12:01:48.620Z,28.40
2023-05-20T12:04:21.974Z,31.08
2023-05-20T12:07:10.605Z,31.60
2023-05-20T12:09:43.693Z,28.60
2023-05-20T12:12:33.596Z,28.30
2023-05-20T12:15:07.154Z,28.33
2023-05-20T12:17:58.621Z,25.40
2023-05-20T12:20:40.607Z,26.27
2023-05-20T12:23:35.600Z,28.88
2023-05-20T12:26:22.602Z,28.52
2023-05-20T12:28:55.709Z,28.45
2023-05-20T12:31:42.627Z,28.40
2023-05-20T12:34:22.625Z,27.83
2023-05-20T12:37:16.591Z,27.95
2023-05-20T12:40:03.609Z,26.77
2023-05-20T12:42:36.760Z,27.05
2023-05-20T12:45:23.652Z,31.13
2023-05-20T12:47:57.800Z,25.67
2023-05-20T12:50:44.610Z,27.20
2023-05-20T12:53:17.722Z,30.67
2023-05-20T12:56:06.095Z,25.52
2023-05-20T12:58:39.804Z,24.50
2023-05-20T13:01:26.708Z,23.73
2023-05-20T13:04:06.609Z,25.63
2023-05-20T13:06:53.629Z,25.13
2023-05-20T13:09:26.851Z,23.65
2023-05-20T13:12:13.640Z,26.80
2023-05-20T13:14:46.876Z,24.95
2023-05-20T13:17:33.678Z,22.48
2023-05-20T13:20:13.639Z,22.65
2023-05-20T13:23:07.669Z,22.80
2023-05-20T13:25:54.650Z,23.83
2023-05-20T13:28:28.181Z,22.70
2023-05-20T13:31:14.682Z,24.67
2023-05-20T13:33:47.795Z,23.13
2023-05-20T13:36:34.635Z,23.45
2023-05-20T13:39:14.646Z,25.98
2023-05-20T13:42:09.736Z,24.63
2023-05-20T13:45:03.667Z,24.50
2023-05-20T13:47:50.676Z,24.25
2023-05-20T13:50:23.794Z,25.55
2023-05-20T13:53:19.638Z,25.33
2023-05-20T13:56:15.630Z,24.02
2023-05-20T13:59:02.671Z,24.58
2023-05-20T14:01:40.466Z,25.38
2023-05-20T14:04:28.715Z,23.77
2023-05-20T14:07:10.022Z,23.52
2023-05-20T14:10:03.673Z,28.20
2023-05-20T14:12:54.867Z,29.08
2023-05-20T14:15:30.529Z,25.35
2023-05-20T14:18:19.994Z,25.58
2023-05-20T14:20:54.854Z,23.20
2023-05-20T14:23:41.677Z,25.40
2023-05-20T14:26:21.677Z,23.50
2023-05-20T14:29:08.654Z,24.15
2023-05-20T14:31:41.857Z,23.35
2023-05-20T14:34:28.716Z,23.33
2023-05-20T14:37:14.750Z,26.08
2023-05-20T14:40:01.696Z,24.10
2023-05-20T14:42:34.871Z,22.52
2023-05-20T14:45:21.688Z,22.15
2023-05-20T14:47:55.017Z,21.38
2023-05-20T14:50:41.669Z,23.98
2023-05-20T14:53:14.812Z,20.67
2023-05-20T14:56:01.685Z,22.27
2023-05-20T14:58:34.810Z,21.40
2023-05-20T15:01:21.720Z,23.90
2023-05-20T15:04:01.710Z,23.10
2023-05-20T15:06:55.699Z,22.13
2023-05-20T15:09:44.775Z,23.77
2023-05-20T15:12:17.841Z,22.73
2023-05-20T15:15:07.709Z,22.27
2023-05-20T15:17:47.704Z,23.80
2023-05-20T15:20:42.007Z,24.70
2023-05-20T15:23:35.794Z,22.85
2023-05-20T15:26:22.722Z,22.58
2023-05-20T15:28:55.915Z,22.42
2023-05-20T15:31:42.724Z,25.83
2023-05-20T15:34:15.892Z,22.95
2023-05-20T15:37:02.727Z,24.90
2023-05-20T15:39:35.866Z,22.67
2023-05-20T15:42:24.749Z,24.20
2023-05-20T15:45:04.731Z,23.58
2023-05-20T15:48:00.031Z,22.40
2023-05-20T15:50:46.737Z,22.90
2023-05-20T15:53:28.730Z,23.23
2023-05-20T15:56:24.746Z,24.00
2023-05-20T15:59:11.717Z,24.80
2023-05-20T16:01:44.892Z,24.83
2023-05-20T16:04:31.908Z,23.38
2023-05-20T16:07:04.880Z,23.10
2023-05-20T16:09:51.722Z,23.88
2023-05-20T16:12:24.885Z,24.48
2023-05-20T16:15:11.738Z,27.50
2023-05-20T16:17:46.108Z,23.70
2023-05-20T16:20:32.915Z,24.27
2023-05-20T16:23:07.524Z,24.83
2023-05-20T16:25:54.756Z,27.35
2023-05-20T16:28:27.889Z,26.33
2023-05-20T16:31:14.789Z,29.70
2023-05-20T16:33:54.822Z,25.38
2023-05-20T16:36:48.767Z,25.35
2023-05-20T16:39:42.763Z,26.05
2023-05-20T16:42:29.807Z,27.52
2023-05-20T16:45:02.875Z,24.88
2023-05-20T16:47:49.890Z,23.83
2023-05-20T16:50:29.789Z,25.27
2023-05-20T16:53:16.801Z,29.13
2023-05-20T16:56:12.661Z,25.60
2023-05-20T16:58:59.836Z,25.50
2023-05-20T17:01:39.886Z,25.85
2023-05-20T17:04:33.839Z,25.73
2023-05-20T17:07:20.826Z,27.02
2023-05-20T17:10:00.870Z,32.33
2023-05-20T17:12:54.822Z,28.23
2023-05-20T17:15:48.819Z,26.83
2023-05-20T17:18:42.854Z,26.50
2023-05-20T17:21:29.803Z,26.23
2023-05-20T17:24:02.957Z,27.58
2023-05-20T17:26:50.833Z,27.70
2023-05-20T17:29:30.753Z,27.27
2023-05-20T17:32:24.837Z,26.90
2023-05-20T17:35:19.816Z,26.40
2023-05-20T17:38:06.761Z,30.75
2023-05-20T17:40:39.902Z,29.25
2023-05-20T17:43:27.817Z,30.08
2023-05-20T17:46:10.555Z,27.45
2023-05-20T17:49:04.838Z,27.65
2023-05-20T17:51:58.824Z,29.50
2023-05-20T17:54:52.841Z,26.40
2023-05-20T17:57:39.894Z,30.90
2023-05-20T18:00:13.992Z,31.15
2023-05-20T18:03:03.966Z,28.75
2023-05-20T18:05:36.986Z,28.02
2023-05-20T18:08:25.834Z,27.13
2023-05-20T18:11:05.868Z,25.88
2023-05-20T18:13:52.825Z,26.92
2023-05-20T18:16:27.169Z,26.52
2023-05-20T18:19:13.901Z,26.90
2023-05-20T18:21:47.975Z,26.48
2023-05-20T18:24:34.840Z,28.45
2023-05-20T18:27:07.968Z,27.60
2023-05-20T18:29:55.860Z,29.70
2023-05-20T18:32:35.949Z,33.55
2023-05-20T18:35:29.867Z,29.85
2023-05-20T18:38:16.827Z,30.40
2023-05-20T18:40:50.120Z,28.55
2023-05-20T18:43:36.880Z,29.23
2023-05-20T18:46:10.006Z,28.77
2023-05-20T18:48:56.847Z,33.35
2023-05-20T18:51:33.244Z,34.67
2023-05-20T18:54:28.586Z,36.45
2023-05-20T18:57:15.861Z,37.85
2023-05-20T18:59:48.950Z,36.00
2023-05-20T19:02:35.879Z,36.28
2023-05-20T19:05:15.871Z,42.83
2023-05-20T19:08:11.884Z,41.45
2023-05-20T19:10:58.870Z,36.90
2023-05-20T19:13:32.119Z,35.28
2023-05-20T19:16:18.910Z,35.42
2023-05-20T19:18:58.905Z,35.22
2023-05-20T19:21:47.973Z,32.20
2023-05-20T19:24:20.977Z,32.97
2023-05-20T19:27:08.906Z,34.35
2023-05-20T19:29:48.876Z,31.00
2023-05-20T19:32:42.899Z,33.67
2023-05-20T19:35:37.063Z,31.38
2023-05-20T19:38:30.873Z,31.23
2023-05-20T19:41:18.900Z,29.38
2023-05-20T19:43:52.013Z,34.33
2023-05-20T19:46:38.964Z,31.85
2023-05-20T19:49:12.018Z,29.50
2023-05-20T19:51:58.903Z,28.58
2023-05-20T19:54:33.137Z,31.67
2023-05-20T19:57:20.885Z,29.20
2023-05-20T19:59:54.059Z,31.13
2023-05-20T20:02:40.946Z,31.02
2023-05-20T20:05:15.064Z,35.60
2023-05-20T20:08:01.934Z,37.40
2023-05-20T20:10:37.685Z,29.73
2023-05-20T20:13:24.876Z,29.70
2023-05-20T20:15:58.893Z,40.28
2023-05-20T20:18:45.944Z,34.50
2023-05-20T20:21:19.007Z,31.13
2023-05-20T20:24:06.885Z,33.55
2023-05-20T20:26:47.927Z,33.17
2023-05-20T20:29:41.938Z,30.13
2023-05-20T20:32:39.392Z,29.17
2023-05-20T20:35:36.089Z,27.52
2023-05-20T20:38:29.950Z,28.88
2023-05-20T20:41:16.875Z,29.65
2023-05-20T20:43:51.026Z,29.48
2023-05-20T20:46:37.962Z,29.23
2023-05-20T20:49:11.208Z,32.00
2023-05-20T20:51:57.958Z,30.05
2023-05-20T20:54:32.900Z,31.55
2023-05-20T20:57:20.898Z,29.30
2023-05-20T20:59:57.869Z,28.83
2023-05-20T21:02:45.945Z,29.05
2023-05-20T21:05:19.033Z,30.08
2023-05-20T21:08:09.932Z,29.17
2023-05-20T21:10:49.949Z,34.97
2023-05-20T21:13:39.430Z,29.42
2023-05-20T21:16:19.973Z,29.88
2023-05-20T21:19:14.007Z,29.50
2023-05-20T21:22:07.959Z,29.58
2023-05-20T21:25:01.935Z,30.67
2023-05-20T21:27:48.920Z,31.23
2023-05-20T21:30:22.020Z,29.45
2023-05-20T21:33:11.074Z,29.42
2023-05-20T21:35:50.981Z,28.65
2023-05-20T21:38:44.898Z,29.52
2023-05-20T21:41:32.007Z,29.67
2023-05-20T21:44:05.009Z,30.00
2023-05-20T21:46:51.999Z,31.60
2023-05-20T21:49:25.009Z,29.52
2023-05-20T21:52:11.933Z,30.95
2023-05-20T21:54:45.114Z,32.15
2023-05-20T21:57:32.000Z,30.52
2023-05-20T22:00:05.630Z,32.35
2023-05-20T22:02:55.102Z,33.08
2023-05-20T22:05:28.431Z,30.60
2023-05-20T22:08:14.967Z,30.42
2023-05-20T22:10:48.415Z,32.92
2023-05-20T22:13:39.919Z,30.17
2023-05-20T22:16:23.298Z,29.80
2023-05-20T22:19:09.968Z,29.13
2023-05-20T22:21:51.177Z,31.27
2023-05-20T22:24:45.054Z,30.63
2023-05-20T22:27:34.013Z,31.20
2023-05-20T22:30:17.035Z,29.30
2023-05-20T22:33:13.164Z,29.77
2023-05-20T22:35:59.956Z,30.23
2023-05-20T22:38:33.096Z,29.23
2023-05-20T22:41:19.935Z,30.60
2023-05-20T22:43:53.054Z,29.42
2023-05-20T22:46:39.965Z,28.85
2023-05-20T22:49:13.116Z,30.98
2023-05-20T22:51:59.967Z,31.15
2023-05-20T22:54:39.986Z,30.83
2023-05-20T22:57:33.949Z,30.83
2023-05-20T23:00:21.985Z,30.25
2023-05-20T23:03:03.044Z,31.80
2023-05-20T23:05:57.021Z,33.13
2023-05-20T23:08:43.952Z,27.92
2023-05-20T23:11:18.102Z,30.75
2023-05-20T23:14:04.999Z,31.67
2023-05-20T23:16:40.211Z,33.42
2023-05-20T23:19:27.008Z,33.70
2023-05-20T23:22:00.152Z,33.10
2023-05-20T23:24:47.006Z,32.38
2023-05-20T23:27:20.064Z,32.53
2023-05-20T23:30:07.036Z,33.03
2023-05-20T23:32:40.121Z,31.35
2023-05-20T23:35:26.980Z,32.28
2023-05-20T23:38:06.989Z,29.70
2023-05-20T23:40:54.988Z,30.98
2023-05-20T23:43:34.987Z,29.25
2023-05-20T23:46:28.984Z,29.42
2023-05-20T23:49:16.986Z,31.95
2023-05-20T23:51:56.964Z,31.88
2023-05-20T23:54:50.992Z,31.13
2023-05-20T23:57:37.978Z,29.73
